Time;durP1;ratioP1;P1;durP2;ratioP2;P2;SDS_P1;SDS_P2;PMS_P1;PMS_P2;Temp;Humidity;BMP_temperature;BMP_pressure;BME280_temperature;BME280_humidity;BME280_pressure;Samples;Min_cycle;Max_cycle;Signal;HPM_P1;HPM_P2
2023/10/07 00:00:17;;;;;;;5.28;2.20;;;;;;;20.52;54.39;102133.22;4945437;28;20031;-77
2023/10/07 00:02:42;;;;;;;5.68;2.20;;;;;;;20.52;54.45;102127.94;4948124;28;20046;-74
2023/10/07 00:05:14;;;;;;;4.50;1.92;;;;;;;20.54;54.58;102138.41;4948250;28;20031;-74
2023/10/07 00:07:43;;;;;;;8.30;2.38;;;;;;;20.53;54.50;102123.47;4946062;28;20041;-75
2023/10/07 00:10:15;;;;;;;5.32;2.20;;;;;;;20.54;54.29;102125.19;4941858;28;20146;-74
2023/10/07 00:12:40;;;;;;;5.53;2.28;;;;;;;20.50;54.37;102108.63;4930337;28;20114;-74
2023/10/07 00:15:11;;;;;;;5.57;2.05;;;;;;;20.51;54.74;102102.41;4945389;28;20094;-74
2023/10/07 00:17:42;;;;;;;4.82;2.00;;;;;;;20.52;54.53;102097.94;4946943;28;20030;-78
2023/10/07 00:20:11;;;;;;;5.47;1.92;;;;;;;20.51;54.56;102110.34;4946052;28;20061;-74
2023/10/07 00:22:47;;;;;;;4.50;2.05;;;;;;;20.50;54.66;102116.56;4945035;28;20680;-77
2023/10/07 00:25:15;;;;;;;8.05;2.38;;;;;;;20.50;54.44;102121.03;4941384;28;20039;-75
2023/10/07 00:27:40;;;;;;;4.65;2.03;;;;;;;20.50;54.30;102113.09;4945642;28;20106;-77
2023/10/07 00:30:22;;;;;;;5.10;2.35;;;;;;;20.48;54.67;102111.38;4928388;28;20053;-77
2023/10/07 00:32:50;;;;;;;4.80;2.03;;;;;;;20.49;54.32;102101.66;4943297;28;20061;-75
2023/10/07 00:35:22;;;;;;;4.43;2.10;;;;;;;20.47;54.49;102103.56;4943446;28;20039;-75
2023/10/07 00:37:48;;;;;;;5.28;2.10;;;;;;;20.49;54.38;102120.19;4941895;28;20038;-74
2023/10/07 00:40:42;;;;;;;5.78;2.40;;;;;;;20.47;54.44;102115.00;4942130;28;20355;-73
2023/10/07 00:42:59;;;;;;;4.30;1.90;;;;;;;20.47;54.55;102108.84;4942684;28;20046;-75
2023/10/07 00:45:25;;;;;;;5.93;2.45;;;;;;;20.46;54.63;102108.00;4943319;28;20035;-75
2023/10/07 00:47:52;;;;;;;4.10;1.85;;;;;;;20.47;54.65;102111.50;4931531;28;20038;-74
2023/10/07 00:50:19;;;;;;;8.20;2.30;;;;;;;20.46;54.56;102108.00;4942892;28;20031;-75
2023/10/07 00:55:22;;;;;;;5.47;2.10;;;;;;;20.47;54.37;102114.16;4943990;28;20049;-74
2023/10/07 00:57:48;;;;;;;5.32;2.42;;;;;;;20.45;54.43;102108.97;4927000;28;20035;-77
2023/10/07 01:02:50;;;;;;;6.28;2.28;;;;;;;20.45;54.22;102095.72;4945251;28;20070;-75
2023/10/07 01:05:22;;;;;;;5.78;2.20;;;;;;;20.45;54.23;102093.06;4945297;28;20054;-77
2023/10/07 01:07:53;;;;;;;5.55;2.10;;;;;;;20.44;54.42;102091.41;4945536;28;20511;-75
2023/10/07 01:10:24;;;;;;;5.60;2.33;;;;;;;20.44;54.44;102083.47;4945941;28;20127;-75
2023/10/07 01:12:51;;;;;;;5.32;2.53;;;;;;;20.44;54.42;102082.59;4945006;28;20559;-78
2023/10/07 01:15:22;;;;;;;5.47;2.40;;;;;;;20.43;54.34;102080.91;4946279;28;20046;-75
2023/10/07 01:17:53;;;;;;;6.68;2.22;;;;;;;20.43;54.47;102081.75;4946084;28;20042;-75
2023/10/07 01:20:22;;;;;;;5.05;2.55;;;;;;;20.43;54.31;102096.81;4948344;28;20145;-74
2023/10/07 01:23:03;;;;;;;6.10;2.40;;;;;;;20.43;54.39;102094.16;4950623;28;20085;-74
2023/10/07 01:25:37;;;;;;;5.38;2.40;;;;;;;20.41;54.10;102104.00;4947568;28;20031;-75
2023/10/07 01:28:04;;;;;;;5.43;2.40;;;;;;;20.42;54.39;102105.69;4946367;28;20035;-76
2023/10/07 01:30:34;;;;;;;5.82;2.28;;;;;;;20.42;54.72;102103.03;4944569;28;20051;-76
2023/10/07 01:33:05;;;;;;;5.93;1.98;;;;;;;20.42;54.55;102092.44;4926821;28;20031;-76
2023/10/07 01:35:38;;;;;;;5.57;2.17;;;;;;;20.40;54.47;102102.31;4944553;28;20039;-77
2023/10/07 01:38:09;;;;;;;8.15;2.45;;;;;;;20.40;54.30;102097.84;4943083;28;20035;-74
2023/10/07 01:43:09;;;;;;;6.07;2.67;;;;;;;20.40;54.42;102087.25;4944850;28;20058;-75
2023/10/07 01:45:39;;;;;;;5.88;2.42;;;;;;;20.40;54.66;102094.38;4946977;28;20035;-74
2023/10/07 01:48:07;;;;;;;6.78;2.53;;;;;;;20.39;54.89;102085.56;4928337;28;20027;-74
2023/10/07 01:50:44;;;;;;;5.88;2.58;;;;;;;20.38;54.67;102097.13;4947066;28;20099;-74
2023/10/07 01:53:16;;;;;;;6.55;2.45;;;;;;;20.39;54.79;102085.56;4944689;28;20039;-75
2023/10/07 01:55:48;;;;;;;5.40;2.50;;;;;;;20.38;54.63;102081.25;4943121;28;20039;-74
2023/10/07 01:58:14;;;;;;;5.00;1.83;;;;;;;20.39;54.82;102087.38;4944382;28;20205;-77
2023/10/07 02:00:44;;;;;;;5.82;2.35;;;;;;;20.38;54.46;102080.41;4948295;28;20042;-74
2023/10/07 02:03:14;;;;;;;5.78;2.40;;;;;;;20.37;54.64;102098.06;4946092;28;20126;-74
2023/10/07 02:05:52;;;;;;;6.40;2.42;;;;;;;20.38;54.74;102086.53;4946719;28;20551;-76
2023/10/07 02:08:22;;;;;;;7.07;2.60;;;;;;;20.38;54.82;102080.41;4945658;28;20208;-78
2023/10/07 02:10:50;;;;;;;5.10;2.50;;;;;;;20.37;54.47;102084.00;4929302;28;20031;-75
2023/10/07 02:13:19;;;;;;;6.50;2.30;;;;;;;20.37;54.50;102095.44;4947989;28;20046;-76
2023/10/07 02:15:46;;;;;;;6.78;2.47;;;;;;;20.37;54.83;102084.84;4948188;28;20480;-76
2023/10/07 02:18:17;;;;;;;5.55;2.45;;;;;;;20.37;54.93;102081.34;4949062;28;20415;-76
2023/10/07 02:20:53;;;;;;;5.72;2.50;;;;;;;20.36;54.84;102074.34;4948274;28;20038;-75
2023/10/07 02:23:40;;;;;;;5.55;2.50;;;;;;;20.37;54.76;102073.41;4945457;28;20069;-76
2023/10/07 02:26:07;;;;;;;5.88;2.33;;;;;;;20.36;54.61;102077.00;4947539;28;20047;-75
2023/10/07 02:28:34;;;;;;;5.75;2.67;;;;;;;20.36;54.68;102082.31;4948448;28;20126;-74
2023/10/07 02:31:15;;;;;;;6.95;2.80;;;;;;;20.35;54.95;102085.94;4942339;28;20051;-75
2023/10/07 02:33:45;;;;;;;6.63;2.67;;;;;;;20.36;54.83;102082.31;4943050;28;20031;-75
2023/10/07 02:36:52;;;;;;;6.80;2.45;;;;;;;20.35;54.99;102067.38;4947246;28;20074;-75
2023/10/07 02:39:23;;;;;;;6.80;2.78;;;;;;;20.37;54.80;102084.00;4943697;28;20043;-74
2023/10/07 02:41:49;;;;;;;7.30;2.83;;;;;;;20.35;54.93;102078.81;4945488;28;20035;-75
2023/10/07 02:44:25;;;;;;;6.60;3.05;;;;;;;20.35;55.12;102086.75;4946202;28;20035;-74
2023/10/07 02:46:54;;;;;;;6.47;2.75;;;;;;;20.35;54.93;102086.75;4942775;28;20093;-75
2023/10/07 02:49:21;;;;;;;5.80;2.70;;;;;;;20.35;55.29;102080.63;4945058;28;20035;-74
2023/10/07 02:51:47;;;;;;;6.55;2.67;;;;;;;20.35;55.43;102084.09;4946876;28;20027;-74
2023/10/07 02:54:19;;;;;;;6.90;3.13;;;;;;;20.34;55.17;102079.75;4945550;28;20461;-74
2023/10/07 02:56:55;;;;;;;7.35;3.30;;;;;;;20.34;54.97;102081.56;4948301;28;20037;-74
2023/10/07 02:59:29;;;;;;;6.60;3.20;;;;;;;20.34;55.07;102086.88;4944663;28;20576;-74
2023/10/07 03:02:12;;;;;;;6.68;3.10;;;;;;;20.34;54.97;102086.88;4945336;28;20031;-74
2023/10/07 03:04:41;;;;;;;8.00;2.90;;;;;;;20.35;55.34;102093.88;4947154;28;20084;-77
2023/10/07 03:07:13;;;;;;;7.63;3.17;;;;;;;20.33;55.26;102088.69;4945836;28;20042;-76
2023/10/07 03:09:42;;;;;;;7.60;3.28;;;;;;;20.33;55.12;102091.31;4943895;28;20039;-74
2023/10/07 03:12:12;;;;;;;6.65;2.75;;;;;;;20.33;55.26;102090.47;4945059;28;20133;-78
2023/10/07 03:14:38;;;;;;;5.53;2.90;;;;;;;20.33;55.50;102090.47;4946747;28;20039;-74
2023/10/07 03:17:16;;;;;;;6.93;3.25;;;;;;;20.33;55.05;102085.16;4944509;28;20066;-74
2023/10/07 03:22:42;;;;;;;5.95;2.90;;;;;;;20.34;55.33;102092.16;4929172;28;20065;-74
2023/10/07 03:25:08;;;;;;;6.90;2.67;;;;;;;20.34;55.26;102093.00;4943120;28;20057;-77
2023/10/07 03:27:39;;;;;;;6.60;3.10;;;;;;;20.33;55.06;102086.03;4942291;28;20493;-73
2023/10/07 03:30:15;;;;;;;7.10;3.60;;;;;;;20.33;55.29;102087.81;4943701;28;20082;-74
2023/10/07 03:32:56;;;;;;;6.97;3.17;;;;;;;20.32;55.69;102080.84;4943020;28;20179;-76
2023/10/07 03:35:35;;;;;;;7.45;3.50;;;;;;;20.31;55.55;102072.03;4944332;28;20039;-77
2023/10/07 03:38:04;;;;;;;6.88;3.35;;;;;;;20.32;55.49;102072.91;4942546;28;20039;-77
2023/10/07 03:40:35;;;;;;;7.85;3.80;;;;;;;20.31;55.75;102074.69;4941816;28;20556;-73
2023/10/07 03:43:00;;;;;;;7.50;3.72;;;;;;;20.33;55.56;102075.44;4940408;28;20451;-74
2023/10/07 03:45:29;;;;;;;7.25;3.80;;;;;;;20.32;55.59;102072.91;4943382;28;20035;-77
2023/10/07 03:47:54;;;;;;;6.80;3.50;;;;;;;20.32;55.73;102067.59;4943889;28;20078;-76
2023/10/07 03:50:34;;;;;;;9.70;3.55;;;;;;;20.31;55.73;102064.09;4943387;28;20035;-74
2023/10/07 03:53:01;;;;;;;7.15;3.50;;;;;;;20.31;55.74;102061.44;4943959;28;20514;-75
2023/10/07 03:55:28;;;;;;;7.13;3.47;;;;;;;20.30;55.84;102052.66;4942254;28;20034;-76
2023/10/07 03:57:54;;;;;;;7.63;3.28;;;;;;;20.30;55.60;102052.66;4940789;28;20061;-74
2023/10/07 04:00:20;;;;;;;7.63;3.70;;;;;;;20.30;55.55;102055.31;4942891;28;20031;-76
2023/10/07 04:02:45;;;;;;;6.45;3.53;;;;;;;20.30;55.58;102057.97;4942217;28;20481;-78
2023/10/07 04:05:12;;;;;;;7.70;3.63;;;;;;;20.30;55.58;102050.03;4941866;28;20138;-76
2023/10/07 04:07:38;;;;;;;8.82;3.30;;;;;;;20.30;55.78;102046.53;4942511;28;20031;-77
2023/10/07 04:10:21;;;;;;;7.07;3.47;;;;;;;20.30;55.98;102041.25;4942395;28;20093;-76
2023/10/07 04:12:47;;;;;;;8.45;3.72;;;;;;;20.30;55.70;102031.50;4941533;28;20069;-75
2023/10/07 04:15:16;;;;;;;8.30;3.17;;;;;;;20.30;55.78;102043.88;4945652;28;20031;-74
2023/10/07 04:17:42;;;;;;;7.57;3.35;;;;;;;20.29;55.54;102040.38;4945771;28;20470;-74
2023/10/07 04:23:03;;;;;;;7.32;3.50;;;;;;;20.31;55.84;102034.97;4937345;28;20050;-74
2023/10/07 04:25:29;;;;;;;;;;;;;;;20.35;55.86;102047.03;4946373;28;20483;-75
2023/10/07 04:27:55;;;;;;;7.03;3.45;;;;;;;20.35;55.96;102046.22;4928271;28;20338;-74
2023/10/07 04:30:26;;;;;;;9.38;3.50;;;;;;;20.33;55.95;102048.97;4943329;28;20161;-75
2023/10/07 04:33:00;;;;;;;8.18;3.97;;;;;;;20.30;55.72;102041.25;4942561;28;20629;-75
2023/10/07 04:35:26;;;;;;;7.20;3.65;;;;;;;20.29;55.69;102044.84;4943168;28;20543;-74
2023/10/07 04:37:59;;;;;;;9.52;3.78;;;;;;;20.29;56.14;102052.78;4940056;28;20131;-77
2023/10/07 04:43:25;;;;;;;6.03;3.30;;;;;;;20.29;56.03;102060.72;4945120;28;20134;-75
2023/10/07 04:45:53;;;;;;;6.78;3.33;;;;;;;20.29;56.02;102061.56;4944572;28;20038;-75
2023/10/07 04:48:40;;;;;;;6.70;3.42;;;;;;;20.29;56.13;102055.41;4940005;28;20039;-75
2023/10/07 04:51:12;;;;;;;6.20;3.47;;;;;;;20.29;56.31;102058.91;4940162;28;20043;-76
2023/10/07 04:53:39;;;;;;;6.35;3.50;;;;;;;20.29;55.97;102063.38;4926446;28;20913;-74
2023/10/07 04:56:09;;;;;;;7.53;3.60;;;;;;;20.27;56.25;102066.13;4945778;28;20444;-74
2023/10/07 04:58:34;;;;;;;6.95;3.30;;;;;;;20.27;55.89;102063.47;4944172;28;20031;-74
2023/10/07 05:01:06;;;;;;;5.88;3.00;;;;;;;20.28;55.99;102062.53;4943786;28;20039;-74
2023/10/07 05:03:31;;;;;;;7.55;3.47;;;;;;;20.27;56.26;102058.19;4941507;28;20057;-74
2023/10/07 05:05:58;;;;;;;6.72;3.28;;;;;;;20.27;56.27;102058.19;4942248;28;20031;-74
2023/10/07 05:08:24;;;;;;;7.57;3.67;;;;;;;20.27;56.09;102060.00;4941895;28;20078;-74
2023/10/07 05:10:52;;;;;;;7.75;3.55;;;;;;;20.25;56.22;102057.44;4942553;28;20039;-76
2023/10/07 05:13:18;;;;;;;6.80;3.33;;;;;;;20.27;56.11;102062.63;4942110;28;20069;-77
2023/10/07 05:15:44;;;;;;;5.55;3.05;;;;;;;20.26;56.27;102061.78;4943396;28;20032;-74
2023/10/07 05:18:13;;;;;;;6.38;3.20;;;;;;;20.25;56.09;102070.69;4945415;28;20035;-75
2023/10/07 05:20:46;;;;;;;7.00;3.03;;;;;;;20.26;56.19;102061.78;4943279;28;20039;-74
2023/10/07 05:23:17;;;;;;;7.03;3.35;;;;;;;20.27;56.26;102060.00;4939361;28;20043;-73
2023/10/07 05:25:49;;;;;;;5.65;2.90;;;;;;;20.26;56.42;102066.22;4942451;28;20035;-73
2023/10/07 05:28:20;;;;;;;7.70;3.05;;;;;;;20.27;56.32;102071.41;4944283;28;20082;-74
2023/10/07 05:30:52;;;;;;;7.15;3.28;;;;;;;20.25;56.27;102060.09;4941992;28;20051;-75
2023/10/07 05:33:17;;;;;;;8.48;3.67;;;;;;;20.27;56.20;102044.94;4926308;28;20129;-74
2023/10/07 05:35:43;;;;;;;7.75;3.42;;;;;;;20.27;55.87;102052.06;4942333;28;20138;-72
2023/10/07 05:38:09;;;;;;;6.78;2.95;;;;;;;20.27;56.14;102042.28;4925854;28;20097;-76
2023/10/07 05:40:41;;;;;;;6.03;3.03;;;;;;;20.25;56.32;102036.28;4945175;28;20035;-73
2023/10/07 05:43:06;;;;;;;5.43;2.67;;;;;;;20.28;56.00;102053.72;4944950;28;20035;-76
2023/10/07 05:45:33;;;;;;;7.45;3.25;;;;;;;20.28;56.12;102059.88;4945670;28;20042;-76
2023/10/07 05:47:58;;;;;;;4.88;2.55;;;;;;;20.27;56.18;102060.81;4942408;28;20041;-77
2023/10/07 05:50:28;;;;;;;7.65;3.00;;;;;;;20.27;56.27;102050.25;4944362;28;20114;-75
2023/10/07 05:53:04;;;;;;;5.75;3.00;;;;;;;20.29;56.32;102061.56;4945119;28;20023;-73
2023/10/07 05:55:30;;;;;;;7.22;3.00;;;;;;;20.31;55.98;102064.09;4943984;28;20035;-73
2023/10/07 05:57:58;;;;;;;7.60;2.90;;;;;;;20.30;56.42;102055.31;4943044;28;20612;-73
2023/10/07 06:00:25;;;;;;;8.07;3.03;;;;;;;20.30;56.08;102060.59;4942784;28;20106;-78
2023/10/07 06:02:52;;;;;;;5.72;2.55;;;;;;;20.29;56.33;102058.06;4944453;28;20042;-74
2023/10/07 06:05:20;;;;;;;5.93;2.78;;;;;;;20.28;56.50;102070.47;4935535;28;20097;-75
2023/10/07 06:07:46;;;;;;;6.78;2.92;;;;;;;20.27;56.40;102076.72;4943416;28;20141;-76
2023/10/07 06:10:11;;;;;;;4.53;2.60;;;;;;;20.27;56.09;102075.88;4943935;28;20042;-76
2023/10/07 06:12:37;;;;;;;5.95;2.60;;;;;;;20.27;56.33;102076.72;4943403;28;20070;-73
2023/10/07 06:15:08;;;;;;;5.38;2.55;;;;;;;20.27;56.28;102067.94;4941877;28;20090;-73
2023/10/07 06:17:34;;;;;;;6.35;2.72;;;;;;;20.27;56.28;102073.22;4943860;28;20029;-73
2023/10/07 06:20:04;;;;;;;5.47;2.90;;;;;;;20.27;56.52;102075.88;4943157;28;20031;-73
2023/10/07 06:22:33;;;;;;;4.75;2.30;;;;;;;20.26;56.64;102075.00;4944638;28;20038;-71
2023/10/07 06:25:04;;;;;;;8.60;2.72;;;;;;;20.23;56.75;102067.28;4944370;28;20043;-74
2023/10/07 06:27:29;;;;;;;7.68;2.60;;;;;;;20.25;56.60;102067.16;4943099;28;20109;-72
2023/10/07 06:29:54;;;;;;;7.82;2.95;;;;;;;20.26;56.53;102074.16;4943540;28;20126;-75
2023/10/07 06:32:22;;;;;;;6.35;2.67;;;;;;;20.25;56.88;102083.06;4943728;28;20310;-75
2023/10/07 06:34:59;;;;;;;6.32;2.70;;;;;;;20.27;56.55;102092.59;4942011;28;20384;-74
2023/10/07 06:37:31;;;;;;;6.35;2.67;;;;;;;20.29;56.87;102103.91;4944379;28;20039;-70
2023/10/07 06:40:00;;;;;;;8.50;2.75;;;;;;;20.29;56.94;102100.44;4943086;28;20359;-72
2023/10/07 06:42:26;;;;;;;5.43;2.72;;;;;;;20.27;57.33;102099.69;4944606;28;20031;-74
2023/10/07 06:44:55;;;;;;;5.75;2.10;;;;;;;20.29;56.85;102092.47;4943816;28;20043;-73
2023/10/07 06:47:23;;;;;;;5.70;2.55;;;;;;;20.30;56.89;102086.25;4945047;28;21347;-74
2023/10/07 06:49:48;;;;;;;5.95;2.38;;;;;;;20.32;57.22;102092.28;4944437;28;20090;-75
2023/10/07 06:52:14;;;;;;;6.45;2.65;;;;;;;20.33;57.20;102090.47;4945296;28;20043;-75
2023/10/07 06:54:40;;;;;;;5.78;2.75;;;;;;;20.34;57.29;102093.00;4935578;28;20039;-74
2023/10/07 06:57:10;;;;;;;7.10;3.00;;;;;;;20.34;57.32;102110.69;4944044;28;20037;-78
2023/10/07 06:59:35;;;;;;;7.85;2.42;;;;;;;20.36;57.12;102108.78;4946722;28;20042;-74
2023/10/07 07:02:07;;;;;;;5.05;2.20;;;;;;;20.35;57.33;102115.88;4946246;28;21152;-76
2023/10/07 07:04:33;;;;;;;6.75;2.35;;;;;;;20.37;57.23;102118.41;4944325;28;20377;-75
2023/10/07 07:06:58;;;;;;;6.75;2.53;;;;;;;20.33;57.31;102111.63;4946299;28;20046;-79
2023/10/07 07:09:42;;;;;;;8.43;2.63;;;;;;;20.36;57.67;102106.13;4949817;28;20035;-75
2023/10/07 07:12:09;;;;;;;6.07;2.47;;;;;;;20.39;57.32;102097.97;4950829;28;20035;-77
2023/10/07 07:14:46;;;;;;;7.07;2.83;;;;;;;20.36;57.41;102101.69;4951817;28;20050;-75
2023/10/07 07:17:35;;;;;;;7.40;2.30;;;;;;;20.39;57.66;102106.75;4929557;28;20039;-74
2023/10/07 07:22:45;;;;;;;7.65;2.55;;;;;;;20.38;57.41;102126.25;4948886;28;20031;-76
2023/10/07 07:27:58;;;;;;;5.60;2.42;;;;;;;20.44;57.51;102127.59;4951459;28;20132;-76
2023/10/07 07:30:29;;;;;;;7.07;2.80;;;;;;;20.42;57.66;102127.72;4946686;28;20062;-77
2023/10/07 07:32:56;;;;;;;6.60;2.47;;;;;;;20.43;57.37;102129.41;4947349;28;20031;-77
2023/10/07 07:35:43;;;;;;;6.60;2.90;;;;;;;20.42;57.62;102135.66;4930845;28;20043;-76
2023/10/07 07:40:44;;;;;;;7.28;2.80;;;;;;;20.41;57.77;102128.69;4948656;28;20034;-71
2023/10/07 07:43:13;;;;;;;11.68;2.72;;;;;;;20.44;58.04;102128.47;4953986;28;20216;-75
2023/10/07 07:45:39;;;;;;;9.05;2.55;;;;;;;20.45;57.75;102135.44;4941696;28;20126;-76
2023/10/07 07:48:05;;;;;;;6.93;2.70;;;;;;;20.48;58.06;102140.53;4945775;28;20031;-75
2023/10/07 07:50:35;;;;;;;5.97;2.63;;;;;;;20.50;57.73;102121.88;4944776;28;20544;-73
2023/10/07 07:53:09;;;;;;;4.60;2.38;;;;;;;20.50;57.68;102118.38;4939884;28;20042;-73
2023/10/07 07:55:37;;;;;;;8.65;2.70;;;;;;;20.48;57.82;102126.44;4942110;28;20031;-77
2023/10/07 07:58:04;;;;;;;6.75;2.60;;;;;;;20.50;57.93;102123.69;4943785;28;20043;-76
2023/10/07 08:00:31;;;;;;;6.30;2.58;;;;;;;20.51;57.90;102120.09;4949112;28;20039;-85
2023/10/07 08:02:58;;;;;;;6.90;2.47;;;;;;;20.52;57.86;102133.22;4937946;28;20043;-79
2023/10/07 08:05:28;;;;;;;6.18;2.80;;;;;;;20.54;58.03;102147.19;4944421;28;20027;-76
2023/10/07 08:07:55;;;;;;;6.00;2.60;;;;;;;20.54;58.13;102151.66;4943864;28;20078;-75
2023/10/07 08:10:22;;;;;;;8.13;2.28;;;;;;;20.55;58.00;102148.88;4942283;28;20038;-73
2023/10/07 08:12:50;;;;;;;8.05;2.70;;;;;;;20.55;58.05;102148.88;4942911;28;20039;-73
2023/10/07 08:15:23;;;;;;;5.10;2.30;;;;;;;20.55;57.79;102148.03;4924985;28;20043;-73
2023/10/07 08:17:55;;;;;;;10.98;2.80;;;;;;;20.55;57.99;102159.47;4944079;28;20035;-73
2023/10/07 08:20:32;;;;;;;7.82;2.65;;;;;;;20.56;58.20;102152.38;4943428;28;20098;-73
2023/10/07 08:23:06;;;;;;;8.25;2.53;;;;;;;20.55;57.78;102158.63;4942473;28;20109;-74
2023/10/07 08:25:45;;;;;;;;;;;;;;;20.60;58.09;102159.13;4948077;28;20039;-72
2023/10/07 08:28:18;;;;;;;7.75;2.80;;;;;;;20.62;57.91;102157.25;4945762;28;19914;-72
2023/10/07 08:30:46;;;;;;;8.05;2.58;;;;;;;20.61;58.04;102139.66;4946486;28;20134;-75
2023/10/07 08:33:14;;;;;;;8.40;2.80;;;;;;;20.59;58.35;102141.56;4944985;28;20101;-72
2023/10/07 08:35:43;;;;;;;6.00;2.58;;;;;;;20.58;58.22;102138.06;4925885;28;20082;-71
2023/10/07 08:41:05;;;;;;;7.03;2.53;;;;;;;20.58;58.65;102140.72;4947609;28;20106;-73
2023/10/07 08:44:01;;;;;;;5.68;2.80;;;;;;;20.59;58.41;102144.22;4942928;28;20275;-72
2023/10/07 08:46:28;;;;;;;8.48;2.80;;;;;;;20.61;58.31;102143.13;4941496;28;20094;-78
2023/10/07 08:49:04;;;;;;;6.38;2.45;;;;;;;20.60;58.62;102144.13;4925767;28;20145;-71
2023/10/07 08:51:39;;;;;;;7.90;2.88;;;;;;;20.59;58.18;102142.41;4942609;28;20035;-74
2023/10/07 08:54:11;;;;;;;9.05;2.75;;;;;;;20.61;58.20;102144.94;4941303;28;20500;-74
2023/10/07 08:56:38;;;;;;;6.95;2.50;;;;;;;20.63;58.45;102137.72;4943216;28;20408;-78
2023/10/07 08:59:07;;;;;;;8.50;2.72;;;;;;;20.64;58.39;102132.34;4941603;28;20031;-72
2023/10/07 09:01:34;;;;;;;8.07;3.05;;;;;;;20.61;58.47;102121.94;4945239;28;20098;-77
2023/10/07 09:04:02;;;;;;;5.78;2.47;;;;;;;20.64;58.37;102124.41;4944545;28;20035;-73
2023/10/07 09:06:33;;;;;;;8.43;2.72;;;;;;;20.66;58.11;102119.00;4949164;28;20031;-74
2023/10/07 09:09:06;;;;;;;6.22;2.60;;;;;;;20.67;58.36;102130.47;4944771;28;20090;-77
2023/10/07 09:11:36;;;;;;;5.60;2.60;;;;;;;20.68;58.17;102129.50;4948183;28;20035;-74
2023/10/07 09:14:07;;;;;;;5.53;2.40;;;;;;;20.67;58.29;102127.81;4933491;28;20038;-74
2023/10/07 09:16:33;;;;;;;6.07;2.65;;;;;;;20.69;57.96;102125.91;4945983;28;20039;-76
2023/10/07 09:18:59;;;;;;;6.63;2.85;;;;;;;20.67;57.96;102119.88;4950437;28;20039;-79
2023/10/07 09:21:28;;;;;;;7.18;2.95;;;;;;;20.68;57.99;102114.47;4942054;28;20551;-76
2023/10/07 09:23:59;;;;;;;6.25;2.47;;;;;;;20.54;58.27;102126.00;4947300;28;20041;-74
2023/10/07 09:32:06;;;;;;;6.05;2.45;;;;;;;20.29;59.27;102119.78;4936821;28;20051;-73
2023/10/07 09:34:47;;;;;;;9.43;2.47;;;;;;;20.27;59.20;102124.34;4953297;28;20039;-71
2023/10/07 09:37:17;;;;;;;5.45;2.55;;;;;;;20.27;59.10;102127.00;4952372;28;20046;-77
2023/10/07 09:39:44;;;;;;;6.05;2.40;;;;;;;20.27;59.38;102119.06;4953157;28;20076;-72
2023/10/07 09:48:05;;;;;;;6.95;2.53;;;;;;;20.23;59.68;102117.56;4918123;28;20058;-76
2023/10/07 09:50:33;;;;;;;5.20;2.22;;;;;;;20.25;59.25;102122.75;4953841;28;20031;-72
2023/10/07 09:53:19;;;;;;;6.50;2.22;;;;;;;20.48;58.50;102119.34;4946800;28;20075;-69
2023/10/07 09:56:11;;;;;;;7.38;2.90;;;;;;;20.58;58.35;102111.56;4957772;28;20039;-75
2023/10/07 09:59:13;;;;;;;6.70;2.42;;;;;;;20.67;58.08;102119.88;4956991;28;20078;-79
2023/10/07 10:02:16;;;;;;;7.03;2.50;;;;;;;20.70;58.27;102109.06;4956122;28;20046;-80
2023/10/07 10:05:12;;;;;;;6.20;2.42;;;;;;;20.68;58.07;102106.50;4951818;28;20063;-73
2023/10/07 10:08:11;;;;;;;11.00;2.67;;;;;;;20.52;58.60;102106.75;4950792;28;20485;-76
2023/10/07 10:10:44;;;;;;;5.55;2.58;;;;;;;20.44;58.74;102109.06;4938933;28;20391;-77
2023/10/07 10:13:52;;;;;;;5.88;2.40;;;;;;;20.40;58.94;102115.56;4945609;28;20035;-74
2023/10/07 10:16:15;;;;;;;6.90;2.25;;;;;;;20.39;58.72;102119.16;4944545;28;20089;-71
2023/10/07 10:18:45;;;;;;;5.45;2.40;;;;;;;20.39;58.71;102122.63;4944522;28;20069;-73
2023/10/07 10:21:12;;;;;;;5.38;2.38;;;;;;;20.54;58.35;102131.31;4943951;28;20066;-68
2023/10/07 10:23:40;;;;;;;6.28;2.33;;;;;;;20.65;58.13;102131.41;4943661;28;20851;-69
2023/10/07 10:26:14;;;;;;;5.93;2.28;;;;;;;20.73;57.93;102137.94;4944163;28;20038;-69
2023/10/07 10:28:41;;;;;;;6.00;2.40;;;;;;;20.76;57.82;102137.72;4932677;28;20039;-69
2023/10/07 10:31:36;;;;;;;7.90;2.47;;;;;;;20.77;57.77;102142.91;4944734;28;20134;-72
2023/10/07 10:34:05;;;;;;;;;;;;;;;20.86;57.65;102144.06;4929096;28;20049;-76
2023/10/07 10:36:35;;;;;;;7.55;2.42;;;;;;;20.84;57.34;102146.00;4947135;28;19918;-73
2023/10/07 10:39:04;;;;;;;6.75;2.33;;;;;;;20.82;57.45;102147.88;4945365;28;20132;-77
2023/10/07 10:41:32;;;;;;;6.68;2.38;;;;;;;20.78;57.60;102143.78;4947117;28;20667;-76
2023/10/07 10:44:10;;;;;;;7.47;2.60;;;;;;;20.77;57.57;102145.56;4947850;28;20401;-73
2023/10/07 10:46:46;;;;;;;6.38;2.45;;;;;;;20.75;57.90;102136.88;4945915;28;20051;-74
2023/10/07 10:49:27;;;;;;;6.72;2.58;;;;;;;20.75;58.18;102134.25;4944684;28;20077;-74
2023/10/07 10:51:55;;;;;;;6.82;2.83;;;;;;;20.76;57.88;102143.03;4944103;28;20031;-75
2023/10/07 10:54:23;;;;;;;6.78;2.60;;;;;;;20.77;58.21;102132.31;4943727;28;20033;-79
2023/10/07 10:57:13;;;;;;;7.22;2.58;;;;;;;20.76;58.57;102129.78;4938997;28;20030;-76
2023/10/07 10:59:47;;;;;;;9.20;2.88;;;;;;;20.82;58.21;102134.63;4945861;28;20058;-71
2023/10/07 11:02:17;;;;;;;9.90;3.20;;;;;;;20.82;58.05;102132.84;4943002;28;21190;-71
2023/10/07 11:05:01;;;;;;;8.55;2.80;;;;;;;20.66;58.72;102132.25;4946118;28;20492;-70
2023/10/07 11:07:27;;;;;;;;;;;;;;;20.61;58.63;102123.75;4944166;28;20031;-70
2023/10/07 11:09:53;;;;;;;7.50;2.70;;;;;;;20.55;59.14;102130.34;4944896;28;19921;-74
2023/10/07 11:12:20;;;;;;;8.98;2.60;;;;;;;20.51;59.40;102120.09;4937628;28;20049;-71
2023/10/07 11:14:47;;;;;;;6.53;2.50;;;;;;;20.47;59.27;102122.97;4950328;28;20043;-75
2023/10/07 11:17:15;;;;;;;10.20;2.50;;;;;;;20.45;59.10;102119.56;4947962;28;20038;-71
2023/10/07 11:19:42;;;;;;;9.35;2.63;;;;;;;20.49;59.22;102128.16;4942216;28;20038;-71
2023/10/07 11:22:07;;;;;;;7.68;2.85;;;;;;;20.46;59.36;102134.50;4945480;28;20095;-71
2023/10/07 11:24:37;;;;;;;6.25;2.70;;;;;;;20.44;59.30;102115.22;4946373;28;20743;-76
2023/10/07 11:27:03;;;;;;;9.80;3.20;;;;;;;20.43;59.38;102116.19;4949149;28;20110;-72
2023/10/07 11:29:32;;;;;;;5.85;2.50;;;;;;;20.42;59.17;102108.34;4947977;28;20031;-72
2023/10/07 11:32:03;;;;;;;7.72;2.63;;;;;;;20.41;59.38;102117.22;4930652;28;20046;-75
2023/10/07 11:34:40;;;;;;;9.57;3.00;;;;;;;20.42;59.33;102113.63;4943462;28;20039;-76
2023/10/07 11:37:13;;;;;;;5.85;2.30;;;;;;;20.41;59.31;102112.81;4936937;28;20043;-76
2023/10/07 11:39:45;;;;;;;7.40;2.63;;;;;;;20.44;59.24;102109.06;4943409;28;20026;-73
2023/10/07 11:42:11;;;;;;;8.00;2.30;;;;;;;20.60;58.63;102114.97;4940500;28;20038;-71
2023/10/07 11:44:38;;;;;;;6.97;2.53;;;;;;;20.71;58.53;102106.31;4945919;28;20489;-75
2023/10/07 11:47:07;;;;;;;10.25;2.97;;;;;;;20.78;58.21;102096.09;4948624;28;20038;-73
2023/10/07 11:49:32;;;;;;;8.00;2.58;;;;;;;20.81;57.94;102112.59;4931752;28;20114;-69
2023/10/07 11:51:58;;;;;;;8.95;2.50;;;;;;;20.86;58.03;102108.78;4942636;28;20044;-70
2023/10/07 11:54:24;;;;;;;9.50;2.55;;;;;;;20.88;57.44;102120.09;4926420;28;20062;-72
2023/10/07 11:56:50;;;;;;;8.95;2.80;;;;;;;20.90;57.78;102107.59;4942920;28;20141;-70
2023/10/07 11:59:15;;;;;;;7.63;2.65;;;;;;;20.91;57.29;102112.78;4943845;28;20463;-71
2023/10/07 12:01:40;;;;;;;10.73;2.70;;;;;;;20.88;57.83;102105.03;4948163;28;20940;-72
2023/10/07 12:04:06;;;;;;;8.90;3.13;;;;;;;20.87;57.53;102106.03;4950192;28;20054;-74
2023/10/07 12:06:32;;;;;;;6.33;2.53;;;;;;;20.73;58.43;102111.44;4944282;28;20085;-74
2023/10/07 12:09:06;;;;;;;6.35;2.60;;;;;;;20.62;58.66;102109.56;4948538;28;20261;-75
2023/10/07 12:11:32;;;;;;;6.80;2.60;;;;;;;20.54;58.72;102104.81;4926549;28;20039;-76
2023/10/07 12:13:57;;;;;;;8.40;2.72;;;;;;;20.49;59.18;102112.25;4946465;28;20456;-73
2023/10/07 12:16:22;;;;;;;9.10;2.63;;;;;;;20.46;58.90;102107.19;4946510;28;20039;-72
2023/10/07 12:18:48;;;;;;;6.63;2.40;;;;;;;20.44;59.14;102115.22;4943455;28;20027;-73
2023/10/07 12:21:14;;;;;;;8.00;2.53;;;;;;;20.43;59.32;102118.81;4948068;28;20042;-72